Time;durP1;ratioP1;P1;durP2;ratioP2;P2;SDS_P1;SDS_P2;PMS_P1;PMS_P2;Temp;Humidity;BMP_temperature;BMP_pressure;BME280_temperature;BME280_humidity;BME280_pressure;Samples;Min_cycle;Max_cycle;Signal;HPM_P1;HPM_P2
2022/05/14 00:01:50;;;;;;;3.55;0.98;;;12.80;99.90;;;;;;4148349;28;20199;-92
2022/05/14 00:03:51;;;;;;;7.72;0.95;;;12.80;99.90;;;;;;4164787;28;20179;-92
2022/05/14 00:05:54;;;;;;;7.72;1.40;;;12.80;99.90;;;;;;4164544;28;20204;-93
2022/05/14 00:07:56;;;;;;;7.00;1.73;;;12.80;99.90;;;;;;4148283;28;20169;-92
2022/05/14 00:09:56;;;;;;;5.28;0.80;;;12.70;99.90;;;;;;4164116;28;20184;-92
2022/05/14 00:14:17;;;;;;;3.22;0.80;;;12.70;99.90;;;;;;4164478;28;20176;-92
2022/05/14 00:16:19;;;;;;;7.35;1.35;;;12.70;99.90;;;;;;4164651;28;20183;-93
2022/05/14 00:18:21;;;;;;;5.35;1.38;;;12.70;99.90;;;;;;4147938;28;20172;-92
2022/05/14 00:20:23;;;;;;;4.88;1.30;;;12.70;99.90;;;;;;4147913;28;20735;-91
2022/05/14 00:22:24;;;;;;;5.65;1.10;;;12.70;99.90;;;;;;4148114;28;20562;-92
2022/05/14 00:24:25;;;;;;;7.63;1.30;;;12.60;99.90;;;;;;4164247;28;20258;-92
2022/05/14 00:26:26;;;;;;;7.70;1.63;;;12.70;99.90;;;;;;4148049;28;20327;-93
2022/05/14 00:28:27;;;;;;;4.75;1.30;;;12.60;99.90;;;;;;4148633;28;20256;-93
2022/05/14 00:30:30;;;;;;;6.28;1.00;;;12.50;99.90;;;;;;4149343;28;20193;-93
2022/05/14 00:32:30;;;;;;;6.05;1.17;;;12.50;99.90;;;;;;4165191;28;20226;-91
2022/05/14 00:34:31;;;;;;;7.10;1.08;;;12.50;99.90;;;;;;4164836;28;20168;-92
2022/05/14 00:36:33;;;;;;;3.67;0.98;;;12.50;99.90;;;;;;4148280;28;20183;-91
2022/05/14 00:38:34;;;;;;;5.78;1.00;;;12.50;99.90;;;;;;4164885;28;20229;-93
2022/05/14 00:40:38;;;;;;;9.55;1.17;;;12.60;99.90;;;;;;4164223;28;20202;-92
2022/05/14 00:42:39;;;;;;;8.73;1.27;;;12.60;99.90;;;;;;4163918;28;20250;-92
2022/05/14 00:44:41;;;;;;;6.18;1.08;;;12.50;99.90;;;;;;4147210;28;20176;-91
2022/05/14 00:46:53;;;;;;;6.90;1.23;;;12.50;99.90;;;;;;4147112;28;20259;-93
2022/05/14 00:48:57;;;;;;;6.28;1.48;;;12.40;99.90;;;;;;4163947;28;20556;-94
2022/05/14 00:50:58;;;;;;;7.85;1.17;;;12.40;99.90;;;;;;4149802;28;20267;-92
2022/05/14 00:53:09;;;;;;;4.38;1.05;;;12.40;99.90;;;;;;4155577;28;20208;-93
2022/05/14 00:55:10;;;;;;;4.00;1.00;;;12.30;99.90;;;;;;4171550;28;20245;-92
2022/05/14 00:57:14;;;;;;;6.93;1.27;;;12.20;99.90;;;;;;4158503;28;20165;-91
2022/05/14 00:59:21;;;;;;;10.77;1.30;;;12.20;99.90;;;;;;4176205;28;20206;-93
2022/05/14 01:01:22;;;;;;;4.50;1.35;;;12.10;99.90;;;;;;4152153;28;20211;-93
2022/05/14 01:03:23;;;;;;;6.97;1.40;;;12.10;99.90;;;;;;4163890;28;20616;-91
2022/05/14 01:05:25;;;;;;;4.47;1.08;;;12.00;99.90;;;;;;4163585;28;20191;-93
2022/05/14 01:07:27;;;;;;;7.22;1.38;;;12.00;99.90;;;;;;4148165;28;20192;-92
2022/05/14 01:09:28;;;;;;;8.52;1.08;;;11.90;99.90;;;;;;4163478;28;20196;-93
2022/05/14 01:11:29;;;;;;;9.02;1.50;;;11.90;99.90;;;;;;4147216;28;20600;-93
2022/05/14 01:13:31;;;;;;;10.05;1.40;;;11.90;99.90;;;;;;4147425;28;20538;-92
2022/05/14 01:15:48;;;;;;;5.45;1.42;;;11.80;99.90;;;;;;4147583;28;20216;-92
2022/05/14 01:17:49;;;;;;;7.80;1.17;;;11.90;99.90;;;;;;4147350;28;20181;-92
2022/05/14 01:19:50;;;;;;;6.65;1.13;;;11.80;99.90;;;;;;4147453;28;20228;-92
2022/05/14 01:22:04;;;;;;;6.68;1.48;;;11.80;99.90;;;;;;4147055;28;20626;-93
2022/05/14 01:26:36;;;;;;;7.05;1.50;;;11.80;99.90;;;;;;4179985;28;20214;-92
2022/05/14 01:28:44;;;;;;;6.45;1.38;;;11.80;99.90;;;;;;4163527;28;20172;-92
2022/05/14 01:30:51;;;;;;;4.63;1.17;;;11.80;99.90;;;;;;4147824;28;20210;-92
2022/05/14 01:33:04;;;;;;;6.70;1.40;;;11.80;99.90;;;;;;4147246;28;20251;-93
2022/05/14 01:35:08;;;;;;;9.57;1.65;;;11.80;99.90;;;;;;4147678;28;20177;-92
2022/05/14 01:37:10;;;;;;;3.88;1.35;;;11.80;99.90;;;;;;4147093;28;20180;-91
2022/05/14 01:39:13;;;;;;;10.98;1.80;;;11.80;99.90;;;;;;4163502;28;20196;-91
2022/05/14 01:41:14;;;;;;;9.53;1.63;;;11.80;99.90;;;;;;4163652;28;20557;-93
2022/05/14 01:43:15;;;;;;;7.68;1.60;;;11.80;99.90;;;;;;4146776;28;20188;-92
2022/05/14 01:45:16;;;;;;;6.10;1.30;;;11.90;99.90;;;;;;4147176;28;20728;-92
2022/05/14 01:47:17;;;;;;;11.77;1.25;;;11.80;99.90;;;;;;4146643;28;20177;-93
2022/05/14 01:49:18;;;;;;;6.65;1.23;;;11.80;99.90;;;;;;4166117;28;20188;-93
2022/05/14 01:51:20;;;;;;;6.90;1.75;;;11.80;99.90;;;;;;4150050;28;20278;-93
2022/05/14 01:53:22;;;;;;;7.32;1.83;;;11.80;99.90;;;;;;4149934;28;20595;-92
2022/05/14 01:55:22;;;;;;;4.68;1.95;;;11.80;99.90;;;;;;4149861;28;20169;-91
2022/05/14 01:57:23;;;;;;;10.07;1.48;;;11.90;99.90;;;;;;4150103;28;20656;-92
2022/05/14 01:59:26;;;;;;;9.00;1.40;;;11.80;99.90;;;;;;4166472;28;20279;-93
2022/05/14 02:01:29;;;;;;;7.57;1.48;;;11.70;99.90;;;;;;4150520;28;20255;-93
2022/05/14 02:03:31;;;;;;;4.68;1.38;;;11.70;99.90;;;;;;4150303;28;20172;-91
2022/05/14 02:05:32;;;;;;;6.50;1.27;;;11.70;99.90;;;;;;4166211;28;20286;-93
2022/05/14 02:07:34;;;;;;;7.50;1.70;;;11.70;99.90;;;;;;4149933;28;20185;-92
2022/05/14 02:09:35;;;;;;;10.27;1.80;;;11.60;99.90;;;;;;4149824;28;20192;-92
2022/05/14 02:11:39;;;;;;;10.97;1.50;;;11.60;99.90;;;;;;4150632;28;20174;-92
2022/05/14 02:14:07;;;;;;;9.80;1.70;;;11.70;99.90;;;;;;4167393;28;20643;-93
2022/05/14 02:16:08;;;;;;;5.95;1.80;;;11.60;99.90;;;;;;4166001;28;20172;-93
2022/05/14 02:18:10;;;;;;;6.23;1.57;;;11.50;99.90;;;;;;4149958;28;20180;-93
2022/05/14 02:20:11;;;;;;;3.67;1.20;;;11.60;99.90;;;;;;4165916;28;20180;-92
2022/05/14 02:22:13;;;;;;;8.43;1.50;;;11.50;99.90;;;;;;4166544;28;20526;-93
2022/05/14 02:24:16;;;;;;;9.77;1.70;;;11.60;99.90;;;;;;4149861;28;20248;-91
2022/05/14 02:26:19;;;;;;;7.25;1.45;;;11.50;99.90;;;;;;4149733;28;20268;-93
2022/05/14 02:28:20;;;;;;;10.50;1.57;;;11.50;99.90;;;;;;4166490;28;20184;-93
2022/05/14 02:30:21;;;;;;;9.80;1.47;;;11.50;99.90;;;;;;4182626;28;20225;-93
2022/05/14 02:32:25;;;;;;;8.20;1.92;;;11.60;99.90;;;;;;4166293;28;20156;-93
2022/05/14 02:34:26;;;;;;;7.80;1.60;;;11.60;99.90;;;;;;4149889;28;20527;-92
2022/05/14 02:36:27;;;;;;;8.73;1.50;;;11.60;99.90;;;;;;4166213;28;20202;-94
2022/05/14 02:38:30;;;;;;;8.87;1.37;;;11.50;99.90;;;;;;4150084;28;20644;-92
2022/05/14 02:40:31;;;;;;;9.73;1.60;;;11.50;99.90;;;;;;4149524;28;20188;-93
2022/05/14 02:42:31;;;;;;;7.28;1.60;;;11.40;99.90;;;;;;4165984;28;20652;-94
2022/05/14 02:44:35;;;;;;;7.90;1.38;;;11.40;99.90;;;;;;4149921;28;20169;-92
2022/05/14 02:46:36;;;;;;;11.50;1.58;;;11.40;99.90;;;;;;4149406;28;20339;-91
2022/05/14 02:48:38;;;;;;;5.93;1.57;;;11.40;99.90;;;;;;4166233;28;20156;-93
2022/05/14 02:50:39;;;;;;;7.50;1.73;;;11.30;99.90;;;;;;4149058;28;20176;-93
2022/05/14 02:52:40;;;;;;;7.43;1.50;;;11.30;99.90;;;;;;4149434;28;20177;-93
2022/05/14 02:54:42;;;;;;;8.43;1.83;;;11.30;99.90;;;;;;4149126;28;20181;-93
2022/05/14 02:56:42;;;;;;;3.78;1.25;;;11.30;99.90;;;;;;4149261;28;20262;-92
2022/05/14 03:01:03;;;;;;;19.73;2.03;;;11.30;99.90;;;;;;4164813;28;20187;-96
2022/05/14 03:03:04;;;;;;;5.75;1.42;;;11.30;99.90;;;;;;4165367;28;20172;-92
2022/05/14 03:05:06;;;;;;;8.93;1.50;;;11.40;99.90;;;;;;4149127;28;20235;-91
2022/05/14 03:07:09;;;;;;;5.87;1.60;;;11.30;99.90;;;;;;4148984;28;20201;-91
2022/05/14 03:09:10;;;;;;;4.93;1.35;;;11.20;99.90;;;;;;4165533;28;20246;-92
2022/05/14 03:11:12;;;;;;;8.83;1.63;;;11.20;99.90;;;;;;4148933;28;20165;-91
2022/05/14 03:13:12;;;;;;;7.50;1.97;;;11.10;99.90;;;;;;4148968;28;20173;-91
2022/05/14 03:15:13;;;;;;;4.43;1.43;;;11.10;99.90;;;;;;4148606;28;20216;-91
2022/05/14 03:17:15;;;;;;;5.82;1.40;;;11.10;99.90;;;;;;4148387;28;20189;-94
2022/05/14 03:19:17;;;;;;;4.93;1.30;;;11.10;99.90;;;;;;4148532;28;20456;-93
2022/05/14 03:21:17;;;;;;;6.25;1.60;;;11.00;99.90;;;;;;4148607;28;20665;-94
2022/05/14 03:23:18;;;;;;;6.50;1.50;;;11.10;99.90;;;;;;4165546;28;20176;-94
2022/05/14 03:25:19;;;;;;;8.57;1.63;;;11.10;99.90;;;;;;4148571;28;20176;-94
2022/05/14 03:27:20;;;;;;;8.70;1.87;;;11.10;99.90;;;;;;4149001;28;20315;-94
2022/05/14 03:29:21;;;;;;;6.20;2.00;;;11.00;99.90;;;;;;4149220;28;20235;-94
2022/05/14 03:31:22;;;;;;;5.33;1.10;;;10.90;99.90;;;;;;4148765;28;20177;-92
2022/05/14 03:33:23;;;;;;;8.60;1.70;;;11.00;99.90;;;;;;4165167;28;20180;-94
2022/05/14 03:35:24;;;;;;;8.63;1.67;;;11.00;99.90;;;;;;4149298;28;20180;-93
2022/05/14 03:37:26;;;;;;;6.63;1.70;;;11.00;99.90;;;;;;4148958;28;20171;-94
2022/05/14 03:39:27;;;;;;;5.03;1.57;;;11.00;99.90;;;;;;4164886;28;20678;-93
2022/05/14 03:41:28;;;;;;;12.17;1.93;;;11.00;99.90;;;;;;4148811;28;20169;-92
2022/05/14 03:43:32;;;;;;;11.50;2.20;;;10.90;99.90;;;;;;4164948;28;20548;-94
2022/05/14 03:45:33;;;;;;;6.20;1.50;;;10.90;99.90;;;;;;4164583;28;20186;-94
2022/05/14 03:47:34;;;;;;;7.07;1.70;;;10.90;99.90;;;;;;4148653;28;20177;-94
2022/05/14 03:49:35;;;;;;;6.90;1.93;;;10.80;99.90;;;;;;4148614;28;20193;-94
2022/05/14 03:51:36;;;;;;;7.90;2.07;;;10.90;99.90;;;;;;4148837;28;20172;-95
2022/05/14 03:53:38;;;;;;;7.30;2.13;;;10.70;99.90;;;;;;4164887;28;20191;-93
2022/05/14 03:55:39;;;;;;;5.37;1.87;;;10.70;99.90;;;;;;4148261;28;20169;-93
2022/05/14 03:57:39;;;;;;;8.10;1.80;;;10.70;99.90;;;;;;4148844;28;20184;-92
2022/05/14 03:59:40;;;;;;;6.50;1.53;;;10.70;99.90;;;;;;4164363;28;20226;-93
2022/05/14 04:01:41;;;;;;;7.60;1.67;;;10.70;99.90;;;;;;4164738;28;20660;-93
2022/05/14 04:03:42;;;;;;;10.47;1.83;;;10.80;99.90;;;;;;4149002;28;20176;-95
2022/05/14 04:05:44;;;;;;;8.63;1.40;;;10.80;99.90;;;;;;4148043;28;20527;-94
2022/05/14 04:07:46;;;;;;;6.60;1.80;;;10.70;99.90;;;;;;4148289;28;20165;-94
2022/05/14 04:09:46;;;;;;;7.97;1.97;;;10.70;99.90;;;;;;4164508;28;20199;-94
2022/05/14 04:11:48;;;;;;;5.57;1.90;;;10.70;99.90;;;;;;4147439;28;20621;-93
2022/05/14 04:13:48;;;;;;;12.10;2.47;;;10.70;99.90;;;;;;4148129;28;20177;-94
2022/05/14 04:15:50;;;;;;;11.67;1.70;;;10.80;99.90;;;;;;4164399;28;20200;-95
2022/05/14 04:17:54;;;;;;;6.23;1.77;;;10.80;99.90;;;;;;4164275;28;20184;-93
2022/05/14 04:19:55;;;;;;;11.30;2.20;;;10.80;99.90;;;;;;4148422;28;20192;-95
2022/05/14 04:21:57;;;;;;;9.40;1.60;;;10.70;99.90;;;;;;4148313;28;20169;-93
2022/05/14 04:23:58;;;;;;;8.30;1.93;;;10.80;99.90;;;;;;4148645;28;20717;-94
2022/05/14 04:26:00;;;;;;;10.17;1.90;;;10.80;99.90;;;;;;4147902;28;20299;-95
2022/05/14 04:28:01;;;;;;;6.53;1.77;;;10.80;99.90;;;;;;4147794;28;20230;-93
2022/05/14 04:30:03;;;;;;;10.87;2.00;;;10.80;99.90;;;;;;4148139;28;20200;-94
2022/05/14 04:32:04;;;;;;;11.55;2.30;;;10.90;99.90;;;;;;4148075;28;20240;-93
2022/05/14 04:34:05;;;;;;;7.83;1.83;;;10.90;99.90;;;;;;4147958;28;20176;-93
2022/05/14 04:36:07;;;;;;;4.97;1.60;;;10.90;99.90;;;;;;4164374;28;20704;-93
2022/05/14 04:38:08;;;;;;;8.27;1.80;;;10.90;99.90;;;;;;4148166;28;20618;-94
2022/05/14 04:40:10;;;;;;;10.23;2.30;;;10.90;99.90;;;;;;4147653;28;20224;-94
2022/05/14 04:42:11;;;;;;;5.73;1.90;;;11.00;99.90;;;;;;4164373;28;20207;-94
2022/05/14 04:44:14;;;;;;;10.20;2.00;;;11.00;99.90;;;;;;4148133;28;20165;-93
2022/05/14 04:46:15;;;;;;;8.13;2.10;;;11.10;99.90;;;;;;4147664;28;20228;-94
2022/05/14 04:48:16;;;;;;;13.43;2.33;;;11.10;99.90;;;;;;4147852;28;20165;-93
2022/05/14 04:50:17;;;;;;;9.87;2.00;;;11.10;99.90;;;;;;4147747;28;20228;-94
2022/05/14 04:52:18;;;;;;;10.80;1.80;;;11.20;99.90;;;;;;4148431;28;20264;-94
2022/05/14 04:54:19;;;;;;;8.93;2.00;;;11.20;99.90;;;;;;4148518;28;20184;-92
2022/05/14 04:56:20;;;;;;;8.97;1.80;;;11.20;99.90;;;;;;4154485;28;20185;-94
2022/05/14 04:58:21;;;;;;;9.43;1.63;;;11.20;99.90;;;;;;4155345;28;20173;-93
2022/05/14 05:00:22;;;;;;;9.97;2.00;;;11.20;99.90;;;;;;4172961;28;20222;-96
2022/05/14 05:04:43;;;;;;;13.20;1.93;;;11.40;99.90;;;;;;4189196;28;20208;-93
2022/05/14 05:06:44;;;;;;;5.97;1.87;;;11.40;99.90;;;;;;4164382;28;20554;-93
2022/05/14 05:08:45;;;;;;;9.53;1.83;;;11.40;99.90;;;;;;4164055;28;20202;-93
2022/05/14 05:10:46;;;;;;;9.90;2.10;;;11.40;99.90;;;;;;4163941;28;20569;-92
2022/05/14 05:12:47;;;;;;;11.70;2.10;;;11.50;99.90;;;;;;4147629;28;20173;-96
2022/05/14 05:14:48;;;;;;;5.65;2.03;;;11.60;99.90;;;;;;4147671;28;20172;-94
2022/05/14 05:16:48;;;;;;;8.25;2.05;;;11.60;99.90;;;;;;4147436;28;20180;-94
2022/05/14 05:18:49;;;;;;;7.00;2.00;;;11.70;99.90;;;;;;4147339;28;20231;-93
2022/05/14 05:20:52;;;;;;;5.93;1.93;;;11.70;99.90;;;;;;4147233;28;20180;-93
2022/05/14 05:22:52;;;;;;;8.00;2.30;;;11.80;99.90;;;;;;4164704;28;20176;-93
2022/05/14 05:24:53;;;;;;;10.07;1.95;;;11.80;99.90;;;;;;4150091;28;20185;-93
2022/05/14 05:26:54;;;;;;;5.53;1.80;;;11.90;99.90;;;;;;4150157;28;20282;-93
2022/05/14 05:28:54;;;;;;;7.20;1.92;;;12.00;99.90;;;;;;4150450;28;20227;-92
2022/05/14 05:30:56;;;;;;;8.55;2.00;;;12.10;99.90;;;;;;4150808;28;20169;-95
2022/05/14 05:32:57;;;;;;;10.80;2.17;;;12.20;99.90;;;;;;4150957;28;20188;-93
2022/05/14 05:34:57;;;;;;;9.43;2.15;;;12.30;99.90;;;;;;4167040;28;20183;-95
2022/05/14 05:36:58;;;;;;;9.60;2.13;;;12.50;99.90;;;;;;4150946;28;20264;-93
2022/05/14 05:38:59;;;;;;;8.00;2.00;;;12.50;99.90;;;;;;4150470;28;20743;-93
2022/05/14 05:41:00;;;;;;;5.57;2.03;;;12.40;99.90;;;;;;4150265;28;20176;-93
2022/05/14 05:43:01;;;;;;;10.77;2.58;;;12.50;99.90;;;;;;4166299;28;20180;-93
2022/05/14 05:45:02;;;;;;;15.20;2.13;;;12.50;99.90;;;;;;4150194;28;20165;-95
2022/05/14 05:47:09;;;;;;;11.93;2.85;;;12.50;99.90;;;;;;4166877;28;20243;-93
2022/05/14 05:49:10;;;;;;;10.18;2.15;;;12.70;99.90;;;;;;4149677;28;20289;-94
2022/05/14 05:51:11;;;;;;;11.52;2.38;;;12.60;99.90;;;;;;4166369;28;20232;-92
2022/05/14 05:53:13;;;;;;;12.30;2.20;;;12.60;99.90;;;;;;4151392;28;20243;-93
2022/05/14 05:57:39;;;;;;;11.90;2.92;;;12.80;99.90;;;;;;4166844;28;20164;-94
2022/05/14 05:59:40;;;;;;;8.82;2.38;;;12.90;99.90;;;;;;4166052;28;20196;-93
2022/05/14 06:01:41;;;;;;;10.30;2.53;;;13.10;99.90;;;;;;4150445;28;20185;-94
2022/05/14 06:03:42;;;;;;;13.02;2.75;;;13.20;99.90;;;;;;4166297;28;20263;-93
2022/05/14 06:05:43;;;;;;;12.13;2.50;;;13.40;99.90;;;;;;4150358;28;20247;-94
2022/05/14 06:07:44;;;;;;;8.25;2.13;;;13.50;99.90;;;;;;4166527;28;20176;-92
2022/05/14 06:09:46;;;;;;;13.60;2.78;;;13.30;99.90;;;;;;4150040;28;20281;-93
2022/05/14 06:11:47;;;;;;;13.88;3.10;;;13.40;99.90;;;;;;4150204;28;20204;-93
2022/05/14 06:13:48;;;;;;;9.38;2.40;;;13.50;99.90;;;;;;4150035;28;20169;-93
2022/05/14 06:15:49;;;;;;;16.10;3.03;;;13.70;99.90;;;;;;4166405;28;20176;-94
2022/05/14 06:17:50;;;;;;;11.02;2.72;;;13.70;99.90;;;;;;4150125;28;20533;-93
2022/05/14 06:19:51;;;;;;;12.93;3.10;;;13.80;99.90;;;;;;4166563;28;20335;-93
2022/05/14 06:21:52;;;;;;;13.23;3.20;;;13.90;99.90;;;;;;4150125;28;20180;-94
2022/05/14 06:23:52;;;;;;;9.57;2.53;;;13.80;99.90;;;;;;4166375;28;20234;-94
2022/05/14 06:25:53;;;;;;;13.52;3.13;;;13.90;99.90;;;;;;4165850;28;20204;-94
2022/05/14 06:27:54;;;;;;;9.25;2.60;;;13.90;99.90;;;;;;4166385;28;20655;-94
2022/05/14 06:29:54;;;;;;;9.10;2.33;;;13.90;99.90;;;;;;4149663;28;20200;-93
2022/05/14 06:31:55;;;;;;;15.82;3.38;;;13.90;99.90;;;;;;4166747;28;20172;-93
2022/05/14 06:33:56;;;;;;;15.85;2.83;;;14.10;99.90;;;;;;4149757;28;20173;-94
2022/05/14 06:36:00;;;;;;;15.05;3.63;;;14.20;99.90;;;;;;4149985;28;20183;-93
2022/05/14 06:38:03;;;;;;;12.90;3.08;;;14.30;99.90;;;;;;4150066;28;20526;-95
2022/05/14 06:40:04;;;;;;;14.75;3.45;;;14.50;99.90;;;;;;4150100;28;20623;-94
2022/05/14 06:42:07;;;;;;;13.57;3.67;;;14.60;99.90;;;;;;4151584;28;20564;-94
2022/05/14 06:44:11;;;;;;;11.95;3.60;;;14.40;99.90;;;;;;4166218;28;20184;-95
2022/05/14 06:46:13;;;;;;;11.80;3.35;;;14.40;99.90;;;;;;4166140;28;20680;-96
2022/05/14 06:48:13;;;;;;;8.02;2.78;;;14.40;99.90;;;;;;4166006;28;20176;-94
2022/05/14 06:50:21;;;;;;;15.68;3.25;;;14.20;99.90;;;;;;4151305;28;20204;-94
2022/05/14 06:52:22;;;;;;;8.57;2.53;;;14.30;99.90;;;;;;4168026;28;20207;-94
2022/05/14 06:54:43;;;;;;;9.80;3.13;;;14.30;99.90;;;;;;4150979;28;20180;-94
2022/05/14 06:56:52;;;;;;;14.70;3.08;;;14.40;99.90;;;;;;4152356;28;20239;-94
2022/05/14 06:58:54;;;;;;;11.52;3.85;;;14.30;99.90;;;;;;4150920;28;20298;-93
2022/05/14 07:00:55;;;;;;;9.95;3.28;;;14.30;99.90;;;;;;4149531;28;20172;-92
2022/05/14 07:07:38;;;;;;;12.32;3.40;;;14.90;99.90;;;;;;4181958;28;20679;-94
2022/05/14 07:09:39;;;;;;;14.10;3.83;;;15.50;99.90;;;;;;4167179;28;20199;-94
2022/05/14 07:11:42;;;;;;;11.02;3.55;;;16.60;99.90;;;;;;4165600;28;20167;-95
2022/05/14 07:13:42;;;;;;;16.80;3.80;;;18.60;99.90;;;;;;4149352;28;20237;-94
2022/05/14 07:15:43;;;;;;;14.45;3.35;;;20.00;99.90;;;;;;4165624;28;20180;-95
2022/05/14 07:17:44;;;;;;;12.55;3.10;;;21.50;99.90;;;;;;4149593;28;20260;-95
2022/05/14 07:19:45;;;;;;;11.60;3.05;;;22.40;99.90;;;;;;4181943;28;20195;-96
2022/05/14 07:21:48;;;;;;;15.32;3.58;;;23.80;99.90;;;;;;4165831;28;20165;-94
2022/05/14 07:23:49;;;;;;;18.30;3.60;;;24.50;99.90;;;;;;4165309;28;20543;-95
2022/05/14 07:25:51;;;;;;;10.32;3.30;;;25.40;99.90;;;;;;4166791;28;20211;-95
2022/05/14 07:27:52;;;;;;;9.23;3.20;;;26.50;99.90;;;;;;4149107;28;20240;-92
2022/05/14 07:29:52;;;;;;;10.63;3.40;;;27.20;99.90;;;;;;4165610;28;20692;-92
2022/05/14 07:31:54;;;;;;;14.55;4.13;;;27.10;99.90;;;;;;4148987;28;20176;-92
2022/05/14 07:33:54;;;;;;;11.48;3.40;;;27.70;99.90;;;;;;4165170;28;20656;-93
2022/05/14 07:36:00;;;;;;;10.90;3.15;;;27.90;99.90;;;;;;4164558;28;20336;-92
2022/05/14 07:38:03;;;;;;;13.75;4.10;;;27.80;99.90;;;;;;4148626;28;20176;-92
2022/05/14 07:40:11;;;;;;;8.50;3.20;;;27.60;99.90;;;;;;4148925;28;20197;-92
2022/05/14 07:42:42;;;;;;;13.98;3.75;;;28.30;99.90;;;;;;4148339;28;20187;-91
2022/05/14 07:44:45;;;;;;;12.50;3.42;;;28.70;99.90;;;;;;4127530;28;20558;-92
2022/05/14 07:46:49;;;;;;;16.05;3.63;;;29.50;99.90;;;;;;4165058;28;20215;-93
2022/05/14 07:48:51;;;;;;;13.45;3.88;;;30.20;99.90;;;;;;4148164;28;20173;-92
2022/05/14 07:50:53;;;;;;;11.93;3.80;;;30.20;99.90;;;;;;4148286;28;20177;-92
2022/05/14 07:52:54;;;;;;;15.60;3.72;;;30.20;99.90;;;;;;4148136;28;20177;-93
2022/05/14 07:54:55;;;;;;;13.20;3.90;;;30.00;99.90;;;;;;4148371;28;20609;-91
2022/05/14 07:56:56;;;;;;;13.02;3.80;;;29.70;99.90;;;;;;4164689;28;20180;-92
2022/05/14 07:58:57;;;;;;;15.25;3.80;;;29.90;99.90;;;;;;4164924;28;20212;-92
2022/05/14 08:00:58;;;;;;;14.43;4.00;;;30.30;99.90;;;;;;4164610;28;20175;-92
2022/05/14 08:03:00;;;;;;;12.55;3.67;;;29.80;99.90;;;;;;4148017;28;20198;-91
2022/05/14 08:05:03;;;;;;;9.32;3.20;;;30.10;99.90;;;;;;4148348;28;20642;-91
2022/05/14 08:07:04;;;;;;;14.98;3.60;;;30.80;99.90;;;;;;4164805;28;20235;-92
2022/05/14 08:09:05;;;;;;;10.07;3.17;;;30.90;99.90;;;;;;4148104;28;20189;-92
2022/05/14 08:11:06;;;;;;;13.63;4.15;;;31.50;99.90;;;;;;4148408;28;20206;-91
2022/05/14 08:13:13;;;;;;;13.55;3.95;;;31.80;99.90;;;;;;4147907;28;20177;-93
2022/05/14 08:15:16;;;;;;;15.05;3.55;;;31.80;99.90;;;;;;4164576;28;20171;-91
2022/05/14 08:17:17;;;;;;;15.05;3.85;;;31.00;99.90;;;;;;4148277;28;20172;-91
2022/05/14 08:19:19;;;;;;;17.17;3.80;;;30.60;99.90;;;;;;4148425;28;20215;-91
2022/05/14 08:26:00;;;;;;;12.80;3.92;;;31.00;99.90;;;;;;4179967;28;20829;-91
2022/05/14 08:28:01;;;;;;;14.13;3.72;;;30.50;99.90;;;;;;4147452;28;20609;-93
2022/05/14 08:30:02;;;;;;;8.77;3.42;;;29.90;99.90;;;;;;4164277;28;20226;-92
2022/05/14 08:32:04;;;;;;;18.73;4.13;;;30.00;99.90;;;;;;4148058;28;20175;-94
2022/05/14 08:34:05;;;;;;;15.93;4.30;;;29.80;99.90;;;;;;4147704;28;20180;-92
2022/05/14 08:36:06;;;;;;;14.40;4.22;;;29.80;99.90;;;;;;4147015;28;20175;-92
2022/05/14 08:38:10;;;;;;;10.85;3.65;;;30.30;99.90;;;;;;4163774;28;20176;-92
2022/05/14 08:40:38;;;;;;;14.52;3.50;;;30.20;99.90;;;;;;4146886;28;20738;-91
2022/05/14 08:42:39;;;;;;;12.50;3.88;;;30.70;99.90;;;;;;4147135;28;20184;-91
2022/05/14 08:44:42;;;;;;;13.63;3.70;;;30.50;99.90;;;;;;4147678;28;20196;-92
2022/05/14 08:46:44;;;;;;;9.77;3.40;;;30.20;99.90;;;;;;4147227;28;20239;-93
2022/05/14 08:48:51;;;;;;;10.77;3.25;;;30.10;99.90;;;;;;4147366;28;20176;-92
2022/05/14 08:51:03;;;;;;;16.88;3.80;;;30.00;99.90;;;;;;4150009;28;20184;-91
2022/05/14 08:53:09;;;;;;;23.42;4.10;;;30.10;99.90;;;;;;4153937;28;20215;-92
2022/05/14 08:55:17;;;;;;;16.80;4.10;;;31.10;99.90;;;;;;4156070;28;20180;-92
2022/05/14 08:57:34;;;;;;;13.30;4.30;;;32.00;99.90;;;;;;4160287;28;20176;-93
2022/05/14 08:59:53;;;;;;;14.63;3.95;;;32.30;99.90;;;;;;4157027;28;20196;-92
2022/05/14 09:02:05;;;;;;;13.55;4.03;;;32.00;99.90;;;;;;4151134;28;20201;-91
2022/05/14 09:04:08;;;;;;;13.77;3.60;;;31.60;99.90;;;;;;4150955;28;20168;-92
2022/05/14 09:06:09;;;;;;;9.18;3.58;;;30.70;99.90;;;;;;4150475;28;20212;-93
2022/05/14 09:08:10;;;;;;;11.57;4.10;;;30.80;99.90;;;;;;4150919;28;20168;-92
2022/05/14 09:10:30;;;;;;;13.90;3.95;;;30.80;99.90;;;;;;4150600;28;20195;-90
2022/05/14 09:12:34;;;;;;;11.43;3.72;;;31.40;99.90;;;;;;4150513;28;20695;-92
2022/05/14 09:14:39;;;;;;;12.80;3.92;;;31.70;99.90;;;;;;4150713;28;20168;-92
2022/05/14 09:16:39;;;;;;;13.60;3.20;;;31.60;99.90;;;;;;4150439;28;20183;-91
2022/05/14 09:18:45;;;;;;;14.18;3.70;;;30.70;99.90;;;;;;4166581;28;20175;-92
2022/05/14 09:21:05;;;;;;;11.40;3.55;;;30.40;99.90;;;;;;4150404;28;20204;-92
2022/05/14 09:23:05;;;;;;;9.80;3.63;;;29.70;99.90;;;;;;4149924;28;20203;-93
2022/05/14 09:25:24;;;;;;;14.15;3.42;;;29.60;99.90;;;;;;4150053;28;20165;-92
2022/05/14 09:27:32;;;;;;;12.15;3.60;;;30.10;99.90;;;;;;4150147;28;20212;-92
2022/05/14 09:29:39;;;;;;;13.60;3.80;;;29.80;99.90;;;;;;4150849;28;20183;-93
2022/05/14 09:31:54;;;;;;;16.90;4.15;;;29.80;99.90;;;;;;4150368;28;20263;-92
2022/05/14 09:34:11;;;;;;;13.20;3.95;;;29.70;99.90;;;;;;4150125;28;20645;-92
2022/05/14 09:36:20;;;;;;;8.82;3.40;;;29.60;99.90;;;;;;4150483;28;20176;-92
2022/05/14 09:38:23;;;;;;;11.00;3.90;;;29.70;99.90;;;;;;4153264;28;20599;-92
2022/05/14 09:40:27;;;;;;;9.40;3.42;;;30.50;99.90;;;;;;4175464;28;20204;-93
2022/05/14 09:42:40;;;;;;;13.02;3.42;;;30.30;99.90;;;;;;4168117;28;20195;-92
2022/05/14 09:44:47;;;;;;;10.57;3.55;;;30.70;99.90;;;;;;4150842;28;20184;-92
2022/05/14 09:46:49;;;;;;;14.40;3.63;;;30.70;99.90;;;;;;4150536;28;20211;-92
2022/05/14 09:48:54;;;;;;;11.98;3.15;;;30.70;99.90;;;;;;4150192;28;20175;-92
2022/05/14 09:50:58;;;;;;;12.65;2.88;;;30.70;99.90;;;;;;4166427;28;20175;-91
2022/05/14 09:53:04;;;;;;;13.43;3.50;;;31.20;99.90;;;;;;4150203;28;20502;-92
2022/05/14 09:55:10;;;;;;;14.88;3.38;;;30.50;99.90;;;;;;4167404;28;20171;-92
2022/05/14 09:57:42;;;;;;;12.82;3.65;;;30.20;99.90;;;;;;4151553;28;20826;-92
2022/05/14 10:00:12;;;;;;;14.88;3.05;;;30.70;99.90;;;;;;4149926;28;20204;-92
2022/05/14 10:02:38;;;;;;;12.30;3.85;;;30.90;99.90;;;;;;4149864;28;20180;-92
2022/05/14 10:05:11;;;;;;;12.45;3.30;;;30.40;99.90;;;;;;4150292;28;20279;-92
2022/05/14 10:07:22;;;;;;;13.07;3.72;;;30.70;99.90;;;;;;4166586;28;20215;-93
2022/05/14 10:09:28;;;;;;;10.73;3.33;;;30.90;99.90;;;;;;4150349;28;20188;-92
2022/05/14 10:11:44;;;;;;;14.88;3.65;;;30.90;99.90;;;;;;4149977;28;20263;-92
2022/05/14 10:14:00;;;;;;;12.82;3.72;;;30.70;99.90;;;;;;4150399;28;20576;-93
2022/05/14 10:16:11;;;;;;;14.50;3.75;;;29.90;99.90;;;;;;4167036;28;20182;-94
2022/05/14 10:18:33;;;;;;;15.85;3.40;;;30.10;99.90;;;;;;4166409;28;20175;-92
2022/05/14 10:20:46;;;;;;;14.65;3.50;;;29.50;99.90;;;;;;4165992;28;20188;-91
2022/05/14 10:29:17;;;;;;;13.20;2.60;;;28.40;99.90;;;;;;4158935;28;20204;-91
2022/05/14 10:31:40;;;;;;;10.15;2.72;;;27.00;99.90;;;;;;4145837;28;20263;-93
2022/05/14 10:33:41;;;;;;;10.77;2.28;;;26.80;99.90;;;;;;4165513;28;20187;-92
2022/05/14 10:36:02;;;;;;;19.50;2.90;;;26.60;99.90;;;;;;4165922;28;20168;-91
2022/05/14 10:38:09;;;;;;;9.25;2.40;;;26.20;99.90;;;;;;4149051;28;20216;-95
2022/05/14 10:40:35;;;;;;;17.80;2.88;;;25.80;99.90;;;;;;4149120;28;20204;-93
2022/05/14 10:42:54;;;;;;;13.57;3.03;;;25.70;99.90;;;;;;4148519;28;20736;-91
2022/05/14 10:45:22;;;;;;;15.43;3.20;;;25.60;99.90;;;;;;4148870;28;20184;-95
2022/05/14 10:47:26;;;;;;;14.68;2.80;;;25.20;99.90;;;;;;4149598;28;20212;-91
2022/05/14 10:49:49;;;;;;;11.05;2.58;;;25.10;99.90;;;;;;4150859;28;20269;-94
2022/05/14 10:51:52;;;;;;;11.40;2.42;;;25.10;99.90;;;;;;4150105;28;20164;-94
2022/05/14 10:53:54;;;;;;;11.38;3.22;;;25.20;99.90;;;;;;4166193;28;20266;-95
2022/05/14 10:56:00;;;;;;;13.60;3.22;;;25.40;99.90;;;;;;4149810;28;20169;-95
2022/05/14 10:58:07;;;;;;;16.60;2.80;;;25.50;99.90;;;;;;4149849;28;20169;-94
2022/05/14 11:00:36;;;;;;;9.65;2.45;;;24.90;99.90;;;;;;4165504;28;20701;-94
2022/05/14 11:03:12;;;;;;;9.57;2.50;;;25.10;99.90;;;;;;4150103;28;20205;-95
2022/05/14 11:05:13;;;;;;;9.27;2.33;;;25.20;99.90;;;;;;4153932;28;20587;-93
2022/05/14 11:07:33;;;;;;;12.15;3.10;;;25.30;99.90;;;;;;4166138;28;20254;-94
2022/05/14 11:09:34;;;;;;;13.50;3.20;;;25.50;99.90;;;;;;4165249;28;20203;-95
2022/05/14 11:11:45;;;;;;;15.07;2.67;;;25.30;99.90;;;;;;4165514;28;20176;-94